sensor_id;sensor_type;location;lat;lon;timestamp;temperature;humidity
55008;DHT22;40902;45.116;21.296;2023-02-26T00:18:12;154.10;2252.80
55008;DHT22;40902;45.116;21.296;2023-02-26T00:20:40;153.90;2252.80
55008;DHT22;40902;45.116;21.296;2023-02-26T00:23:11;153.70;2252.80
55008;DHT22;40902;45.116;21.296;2023-02-26T00:25:39;153.60;2252.80
55008;DHT22;40902;45.116;21.296;2023-02-26T00:28:06;128.90;2252.80
55008;DHT22;40902;45.116;21.296;2023-02-26T00:30:32;128.80;2252.80
55008;DHT22;40902;45.116;21.296;2023-02-26T00:32:58;128.90;2252.80
55008;DHT22;40902;45.116;21.296;2023-02-26T00:35:24;128.90;2252.80
55008;DHT22;40902;45.116;21.296;2023-02-26T00:38:00;128.90;2252.80
55008;DHT22;40902;45.116;21.296;2023-02-26T00:41:00;128.90;2252.80
55008;DHT22;40902;45.116;21.296;2023-02-26T00:43:22;128.80;2252.80
55008;DHT22;40902;45.116;21.296;2023-02-26T00:48:45;128.70;2252.80
55008;DHT22;40902;45.116;21.296;2023-02-26T00:51:28;128.60;2252.80
55008;DHT22;40902;45.116;21.296;2023-02-26T00:54:27;128.60;2252.80
55008;DHT22;40902;45.116;21.296;2023-02-26T00:56:55;128.50;2252.80
55008;DHT22;40902;45.116;21.296;2023-02-26T00:59:22;128.30;2252.80
55008;DHT22;40902;45.116;21.296;2023-02-26T01:01:48;128.40;2252.80
55008;DHT22;40902;45.116;21.296;2023-02-26T01:04:17;128.40;2252.80
55008;DHT22;40902;45.116;21.296;2023-02-26T01:06:46;128.30;2252.80
55008;DHT22;40902;45.116;21.296;2023-02-26T01:11:54;128.30;2252.80
55008;DHT22;40902;45.116;21.296;2023-02-26T01:14:20;128.30;2252.80
55008;DHT22;40902;45.116;21.296;2023-02-26T01:16:56;128.30;2252.80
55008;DHT22;40902;45.116;21.296;2023-02-26T01:25:05;128.40;2252.80
55008;DHT22;40902;45.116;21.296;2023-02-26T01:27:32;128.30;2252.80
55008;DHT22;40902;45.116;21.296;2023-02-26T01:29:58;128.40;2252.80
55008;DHT22;40902;45.116;21.296;2023-02-26T01:43:41;128.30;2252.80
55008;DHT22;40902;45.116;21.296;2023-02-26T01:48:53;128.20;2252.80
55008;DHT22;40902;45.116;21.296;2023-02-26T01:54:14;128.20;2252.80
55008;DHT22;40902;45.116;21.296;2023-02-26T01:56:41;128.10;2252.80
55008;DHT22;40902;45.116;21.296;2023-02-26T01:59:10;103.30;2227.20
55008;DHT22;40902;45.116;21.296;2023-02-26T02:01:37;103.30;2227.20
55008;DHT22;40902;45.116;21.296;2023-02-26T02:04:04;103.30;2227.20
55008;DHT22;40902;45.116;21.296;2023-02-26T02:06:32;103.20;2227.20
55008;DHT22;40902;45.116;21.296;2023-02-26T02:08:58;103.20;2227.20
55008;DHT22;40902;45.116;21.296;2023-02-26T02:11:24;103.30;2227.20
55008;DHT22;40902;45.116;21.296;2023-02-26T02:14:10;103.20;2227.20
55008;DHT22;40902;45.116;21.296;2023-02-26T02:16:58;103.10;2227.20
55008;DHT22;40902;45.116;21.296;2023-02-26T02:25:02;102.90;2227.20
55008;DHT22;40902;45.116;21.296;2023-02-26T02:27:40;102.90;2227.20
55008;DHT22;40902;45.116;21.296;2023-02-26T02:33:11;102.80;2227.20
55008;DHT22;40902;45.116;21.296;2023-02-26T02:35:44;102.80;2227.20
55008;DHT22;40902;45.116;21.296;2023-02-26T02:38:38;102.80;2227.20
55008;DHT22;40902;45.116;21.296;2023-02-26T02:41:19;102.70;2227.20
55008;DHT22;40902;45.116;21.296;2023-02-26T02:43:48;102.70;2227.20
55008;DHT22;40902;45.116;21.296;2023-02-26T02:46:22;102.60;2227.20
55008;DHT22;40902;45.116;21.296;2023-02-26T02:49:04;102.60;2227.20
55008;DHT22;40902;45.116;21.296;2023-02-26T02:51:36;102.60;2227.20
55008;DHT22;40902;45.116;21.296;2023-02-26T02:56:37;102.50;2227.20
55008;DHT22;40902;45.116;21.296;2023-02-26T03:01:45;102.40;2227.20
55008;DHT22;40902;45.116;21.296;2023-02-26T03:04:14;102.40;2227.20
55008;DHT22;40902;45.116;21.296;2023-02-26T03:06:41;102.40;2227.20
55008;DHT22;40902;45.116;21.296;2023-02-26T03:09:08;102.40;2227.20
55008;DHT22;40902;45.116;21.296;2023-02-26T03:11:35;77.70;2227.20
55008;DHT22;40902;45.116;21.296;2023-02-26T03:14:02;77.60;2227.20
55008;DHT22;40902;45.116;21.296;2023-02-26T03:16:55;77.60;2227.20
55008;DHT22;40902;45.116;21.296;2023-02-26T03:19:43;77.60;2227.20
55008;DHT22;40902;45.116;21.296;2023-02-26T03:25:29;77.60;2227.20
55008;DHT22;40902;45.116;21.296;2023-02-26T03:30:43;77.40;2227.20
55008;DHT22;40902;45.116;21.296;2023-02-26T03:33:33;77.40;2227.20
55008;DHT22;40902;45.116;21.296;2023-02-26T03:36:11;77.40;2227.20
55008;DHT22;40902;45.116;21.296;2023-02-26T03:39:00;77.30;2227.20
55008;DHT22;40902;45.116;21.296;2023-02-26T03:41:36;77.30;2227.20
55008;DHT22;40902;45.116;21.296;2023-02-26T03:44:08;77.30;2227.20
55008;DHT22;40902;45.116;21.296;2023-02-26T03:46:45;77.30;2227.20
55008;DHT22;40902;45.116;21.296;2023-02-26T03:49:25;77.30;2227.20
55008;DHT22;40902;45.116;21.296;2023-02-26T03:51:53;77.20;2227.20
55008;DHT22;40902;45.116;21.296;2023-02-26T03:54:23;77.20;2227.20
55008;DHT22;40902;45.116;21.296;2023-02-26T03:56:50;77.20;2227.20
55008;DHT22;40902;45.116;21.296;2023-02-26T03:59:17;77.10;2227.20
55008;DHT22;40902;45.116;21.296;2023-02-26T04:02:01;77.20;2227.20
55008;DHT22;40902;45.116;21.296;2023-02-26T04:04:34;77.10;2227.20
55008;DHT22;40902;45.116;21.296;2023-02-26T04:07:02;77.10;2227.20
55008;DHT22;40902;45.116;21.296;2023-02-26T04:09:27;77.10;2227.20
55008;DHT22;40902;45.116;21.296;2023-02-26T04:11:55;77.10;2227.20
55008;DHT22;40902;45.116;21.296;2023-02-26T04:14:21;77.10;2227.20
55008;DHT22;40902;45.116;21.296;2023-02-26T04:16:47;77.10;2227.20
55008;DHT22;40902;45.116;21.296;2023-02-26T04:19:12;77.10;2227.20
55008;DHT22;40902;45.116;21.296;2023-02-26T04:21:38;77.00;2227.20
55008;DHT22;40902;45.116;21.296;2023-02-26T04:24:04;77.10;2227.20
55008;DHT22;40902;45.116;21.296;2023-02-26T04:26:30;77.00;2227.20
55008;DHT22;40902;45.116;21.296;2023-02-26T04:28:56;77.00;2227.20
55008;DHT22;40902;45.116;21.296;2023-02-26T04:31:21;77.00;2227.20
55008;DHT22;40902;45.116;21.296;2023-02-26T04:33:47;77.00;2227.20
55008;DHT22;40902;45.116;21.296;2023-02-26T04:36:13;77.00;2227.20
55008;DHT22;40902;45.116;21.296;2023-02-26T04:38:38;77.00;2227.20
55008;DHT22;40902;45.116;21.296;2023-02-26T04:41:05;77.00;2227.20
55008;DHT22;40902;45.116;21.296;2023-02-26T04:43:31;77.00;2227.20
55008;DHT22;40902;45.116;21.296;2023-02-26T04:45:57;77.00;2227.20
55008;DHT22;40902;45.116;21.296;2023-02-26T04:48:23;77.00;2227.20
55008;DHT22;40902;45.116;21.296;2023-02-26T04:50:49;77.00;2227.20
55008;DHT22;40902;45.116;21.296;2023-02-26T04:53:15;76.90;2227.20
55008;DHT22;40902;45.116;21.296;2023-02-26T04:55:40;76.90;2227.20
55008;DHT22;40902;45.116;21.296;2023-02-26T04:58:07;76.90;2227.20
55008;DHT22;40902;45.116;21.296;2023-02-26T05:00:33;76.90;2227.20
55008;DHT22;40902;45.116;21.296;2023-02-26T05:02:59;76.90;2227.20
55008;DHT22;40902;45.116;21.296;2023-02-26T05:05:25;76.90;2227.20
55008;DHT22;40902;45.116;21.296;2023-02-26T05:07:51;77.00;2227.20
55008;DHT22;40902;45.116;21.296;2023-02-26T05:10:20;77.00;2227.20
55008;DHT22;40902;45.116;21.296;2023-02-26T05:12:45;77.10;2227.20
55008;DHT22;40902;45.116;21.296;2023-02-26T05:15:11;77.10;2227.20
55008;DHT22;40902;45.116;21.296;2023-02-26T05:17:37;77.10;2227.20
55008;DHT22;40902;45.116;21.296;2023-02-26T05:20:04;77.10;2227.20
55008;DHT22;40902;45.116;21.296;2023-02-26T05:22:30;77.10;2227.20
55008;DHT22;40902;45.116;21.296;2023-02-26T05:24:55;77.10;2227.20
55008;DHT22;40902;45.116;21.296;2023-02-26T05:27:21;77.10;2227.20
55008;DHT22;40902;45.116;21.296;2023-02-26T05:29:46;77.10;2227.20
55008;DHT22;40902;45.116;21.296;2023-02-26T05:32:12;77.20;2227.20
55008;DHT22;40902;45.116;21.296;2023-02-26T05:34:38;77.20;2227.20
55008;DHT22;40902;45.116;21.296;2023-02-26T05:37:04;77.30;2227.20
55008;DHT22;40902;45.116;21.296;2023-02-26T05:39:29;77.30;2227.20
55008;DHT22;40902;45.116;21.296;2023-02-26T05:41:55;77.40;2227.20
55008;DHT22;40902;45.116;21.296;2023-02-26T05:44:22;77.50;2227.20
55008;DHT22;40902;45.116;21.296;2023-02-26T05:46:47;77.60;2227.20
55008;DHT22;40902;45.116;21.296;2023-02-26T05:49:13;77.70;2227.20
55008;DHT22;40902;45.116;21.296;2023-02-26T05:51:39;102.40;2227.20
55008;DHT22;40902;45.116;21.296;2023-02-26T05:54:07;102.40;2227.20
55008;DHT22;40902;45.116;21.296;2023-02-26T05:56:33;102.40;2227.20
55008;DHT22;40902;45.116;21.296;2023-02-26T05:58:58;102.50;2227.20
55008;DHT22;40902;45.116;21.296;2023-02-26T06:01:24;102.50;2227.20
55008;DHT22;40902;45.116;21.296;2023-02-26T06:03:50;102.60;2227.20
55008;DHT22;40902;45.116;21.296;2023-02-26T06:06:15;102.60;2227.20
55008;DHT22;40902;45.116;21.296;2023-02-26T06:08:43;102.60;2227.20
55008;DHT22;40902;45.116;21.296;2023-02-26T06:11:09;102.60;2227.20
55008;DHT22;40902;45.116;21.296;2023-02-26T06:13:35;102.60;2227.20
55008;DHT22;40902;45.116;21.296;2023-02-26T06:16:01;102.70;2227.20
55008;DHT22;40902;45.116;21.296;2023-02-26T06:18:27;102.60;2227.20
55008;DHT22;40902;45.116;21.296;2023-02-26T06:20:52;102.70;2227.20
55008;DHT22;40902;45.116;21.296;2023-02-26T06:23:18;102.60;2227.20
55008;DHT22;40902;45.116;21.296;2023-02-26T06:25:44;102.70;2227.20
55008;DHT22;40902;45.116;21.296;2023-02-26T06:28:09;102.60;2227.20
55008;DHT22;40902;45.116;21.296;2023-02-26T06:30:35;102.60;2227.20
55008;DHT22;40902;45.116;21.296;2023-02-26T06:33:01;102.60;2227.20
55008;DHT22;40902;45.116;21.296;2023-02-26T06:35:27;102.60;2227.20
55008;DHT22;40902;45.116;21.296;2023-02-26T06:37:56;102.50;2227.20
55008;DHT22;40902;45.116;21.296;2023-02-26T06:40:22;102.50;2227.20
55008;DHT22;40902;45.116;21.296;2023-02-26T06:42:47;102.50;2227.20
55008;DHT22;40902;45.116;21.296;2023-02-26T06:45:13;102.50;2227.20
55008;DHT22;40902;45.116;21.296;2023-02-26T06:47:39;102.50;2227.20
55008;DHT22;40902;45.116;21.296;2023-02-26T06:50:05;102.50;2227.20
55008;DHT22;40902;45.116;21.296;2023-02-26T06:52:31;102.60;2227.20
55008;DHT22;40902;45.116;21.296;2023-02-26T06:54:57;102.60;2227.20
55008;DHT22;40902;45.116;21.296;2023-02-26T06:57:23;102.50;2227.20
55008;DHT22;40902;45.116;21.296;2023-02-26T06:59:48;102.40;2227.20
55008;DHT22;40902;45.116;21.296;2023-02-26T07:02:21;102.40;2227.20
55008;DHT22;40902;45.116;21.296;2023-02-26T07:04:47;102.50;2227.20
55008;DHT22;40902;45.116;21.296;2023-02-26T07:07:13;102.50;2227.20
55008;DHT22;40902;45.116;21.296;2023-02-26T07:09:39;102.50;2227.20
55008;DHT22;40902;45.116;21.296;2023-02-26T07:12:05;102.60;2227.20
55008;DHT22;40902;45.116;21.296;2023-02-26T07:14:32;102.60;2227.20
55008;DHT22;40902;45.116;21.296;2023-02-26T07:16:58;102.60;2227.20
55008;DHT22;40902;45.116;21.296;2023-02-26T07:19:24;102.60;2227.20
55008;DHT22;40902;45.116;21.296;2023-02-26T07:21:50;102.70;2227.20
55008;DHT22;40902;45.116;21.296;2023-02-26T07:24:16;102.80;2227.20
55008;DHT22;40902;45.116;21.296;2023-02-26T07:26:41;102.80;2227.20
55008;DHT22;40902;45.116;21.296;2023-02-26T07:29:07;102.80;2227.20
55008;DHT22;40902;45.116;21.296;2023-02-26T07:31:33;102.90;2227.20
55008;DHT22;40902;45.116;21.296;2023-02-26T07:33:58;102.90;2227.20
55008;DHT22;40902;45.116;21.296;2023-02-26T07:36:24;102.90;2227.20
55008;DHT22;40902;45.116;21.296;2023-02-26T07:38:50;102.90;2227.20
55008;DHT22;40902;45.116;21.296;2023-02-26T07:41:15;102.80;2227.20
55008;DHT22;40902;45.116;21.296;2023-02-26T07:43:41;102.90;2227.20
55008;DHT22;40902;45.116;21.296;2023-02-26T07:46:07;102.80;2227.20
55008;DHT22;40902;45.116;21.296;2023-02-26T07:48:33;102.90;2227.20
55008;DHT22;40902;45.116;21.296;2023-02-26T07:50:59;102.80;2227.20
55008;DHT22;40902;45.116;21.296;2023-02-26T07:53:25;102.80;2227.20
55008;DHT22;40902;45.116;21.296;2023-02-26T07:55:50;102.70;2227.20
55008;DHT22;40902;45.116;21.296;2023-02-26T07:58:16;102.70;2227.20
55008;DHT22;40902;45.116;21.296;2023-02-26T08:00:42;102.80;2227.20
55008;DHT22;40902;45.116;21.296;2023-02-26T08:03:08;102.70;2227.20
55008;DHT22;40902;45.116;21.296;2023-02-26T08:05:34;102.70;2227.20
55008;DHT22;40902;45.116;21.296;2023-02-26T08:07:59;102.70;2227.20
55008;DHT22;40902;45.116;21.296;2023-02-26T08:10:26;102.80;2227.20
55008;DHT22;40902;45.116;21.296;2023-02-26T08:12:52;102.80;2227.20
55008;DHT22;40902;45.116;21.296;2023-02-26T08:15:18;102.90;2227.20
55008;DHT22;40902;45.116;21.296;2023-02-26T08:17:44;102.90;2227.20
55008;DHT22;40902;45.116;21.296;2023-02-26T08:20:10;102.90;2227.20
55008;DHT22;40902;45.116;21.296;2023-02-26T08:22:37;102.90;2227.20
55008;DHT22;40902;45.116;21.296;2023-02-26T08:25:03;102.90;2227.20
55008;DHT22;40902;45.116;21.296;2023-02-26T08:27:28;102.90;2227.20
55008;DHT22;40902;45.116;21.296;2023-02-26T08:29:54;103.00;2227.20
55008;DHT22;40902;45.116;21.296;2023-02-26T08:32:20;103.00;2227.20
55008;DHT22;40902;45.116;21.296;2023-02-26T08:34:47;103.00;2227.20
55008;DHT22;40902;45.116;21.296;2023-02-26T08:37:13;103.00;2227.20
55008;DHT22;40902;45.116;21.296;2023-02-26T08:39:39;103.00;2227.20
55008;DHT22;40902;45.116;21.296;2023-02-26T08:42:06;103.00;2227.20
55008;DHT22;40902;45.116;21.296;2023-02-26T08:44:33;103.10;2227.20
55008;DHT22;40902;45.116;21.296;2023-02-26T08:46:59;103.10;2227.20
55008;DHT22;40902;45.116;21.296;2023-02-26T08:49:24;103.10;2227.20
55008;DHT22;40902;45.116;21.296;2023-02-26T08:51:50;103.00;2227.20
55008;DHT22;40902;45.116;21.296;2023-02-26T08:54:16;103.00;2227.20
55008;DHT22;40902;45.116;21.296;2023-02-26T08:56:42;103.00;2227.20
55008;DHT22;40902;45.116;21.296;2023-02-26T08:59:07;102.90;2227.20
55008;DHT22;40902;45.116;21.296;2023-02-26T09:01:34;102.90;2227.20
55008;DHT22;40902;45.116;21.296;2023-02-26T09:04:00;102.80;2227.20
55008;DHT22;40902;45.116;21.296;2023-02-26T09:06:26;102.80;2227.20
55008;DHT22;40902;45.116;21.296;2023-02-26T09:08:52;102.90;2227.20
55008;DHT22;40902;45.116;21.296;2023-02-26T09:11:17;102.90;2227.20
55008;DHT22;40902;45.116;21.296;2023-02-26T09:13:43;103.00;2227.20
55008;DHT22;40902;45.116;21.296;2023-02-26T09:16:09;102.90;2227.20
55008;DHT22;40902;45.116;21.296;2023-02-26T09:18:35;102.90;2227.20
55008;DHT22;40902;45.116;21.296;2023-02-26T09:21:01;103.00;2227.20
55008;DHT22;40902;45.116;21.296;2023-02-26T09:23:27;103.00;2227.20
55008;DHT22;40902;45.116;21.296;2023-02-26T09:25:54;103.00;2227.20
55008;DHT22;40902;45.116;21.296;2023-02-26T09:28:21;103.00;2227.20
55008;DHT22;40902;45.116;21.296;2023-02-26T09:30:51;103.00;2227.20
55008;DHT22;40902;45.116;21.296;2023-02-26T09:33:17;103.10;2227.20
55008;DHT22;40902;45.116;21.296;2023-02-26T09:35:43;103.20;2227.20
55008;DHT22;40902;45.116;21.296;2023-02-26T09:38:08;103.30;2227.20
55008;DHT22;40902;45.116;21.296;2023-02-26T09:45:47;103.30;2227.20
55008;DHT22;40902;45.116;21.296;2023-02-26T09:48:15;128.00;2252.80
55008;DHT22;40902;45.116;21.296;2023-02-26T09:50:47;128.20;2252.80
55008;DHT22;40902;45.116;21.296;2023-02-26T09:53:26;128.10;2252.80
55008;DHT22;40902;45.116;21.296;2023-02-26T09:55:56;128.10;2252.80
55008;DHT22;40902;45.116;21.296;2023-02-26T09:58:30;128.10;2252.80
55008;DHT22;40902;45.116;21.296;2023-02-26T10:11:55;128.10;2252.80
55008;DHT22;40902;45.116;21.296;2023-02-26T10:14:30;128.20;2252.80
55008;DHT22;40902;45.116;21.296;2023-02-26T10:17:02;128.10;2252.80
55008;DHT22;40902;45.116;21.296;2023-02-26T10:19:39;128.10;2252.80
55008;DHT22;40902;45.116;21.296;2023-02-26T10:30:27;128.10;2252.80
55008;DHT22;40902;45.116;21.296;2023-02-26T10:33:02;128.00;2252.80
55008;DHT22;40902;45.116;21.296;2023-02-26T10:35:36;128.00;2252.80
55008;DHT22;40902;45.116;21.296;2023-02-26T10:38:16;128.00;2252.80
55008;DHT22;40902;45.116;21.296;2023-02-26T10:51:15;128.20;2252.80
55008;DHT22;40902;45.116;21.296;2023-02-26T10:53:53;128.30;2252.80
55008;DHT22;40902;45.116;21.296;2023-02-26T10:56:28;128.40;2252.80
55008;DHT22;40902;45.116;21.296;2023-02-26T10:58:54;128.40;2252.80
55008;DHT22;40902;45.116;21.296;2023-02-26T11:01:23;128.50;2252.80
55008;DHT22;40902;45.116;21.296;2023-02-26T11:04:00;128.70;2252.80
55008;DHT22;40902;45.116;21.296;2023-02-26T11:06:30;128.80;2252.80
55008;DHT22;40902;45.116;21.296;2023-02-26T11:08:58;128.70;2252.80
55008;DHT22;40902;45.116;21.296;2023-02-26T11:11:49;128.80;2252.80
55008;DHT22;40902;45.116;21.296;2023-02-26T11:14:15;128.90;2252.80
55008;DHT22;40902;45.116;21.296;2023-02-26T11:17:03;128.90;2252.80
55008;DHT22;40902;45.116;21.296;2023-02-26T11:19:35;153.60;2252.80
55008;DHT22;40902;45.116;21.296;2023-02-26T11:22:03;153.60;2252.80
55008;DHT22;40902;45.116;21.296;2023-02-26T11:24:36;153.70;2252.80
55008;DHT22;40902;45.116;21.296;2023-02-26T11:27:11;153.80;2252.80
55008;DHT22;40902;45.116;21.296;2023-02-26T11:29:40;153.60;2252.80
55008;DHT22;40902;45.116;21.296;2023-02-26T11:32:17;153.70;2252.80
55008;DHT22;40902;45.116;21.296;2023-02-26T11:34:50;153.80;2252.80
55008;DHT22;40902;45.116;21.296;2023-02-26T11:37:19;153.80;2252.80
55008;DHT22;40902;45.116;21.296;2023-02-26T11:39:46;153.80;2252.80
55008;DHT22;40902;45.116;21.296;2023-02-26T11:42:15;153.80;2252.80
55008;DHT22;40902;45.116;21.296;2023-02-26T11:44:44;153.80;2252.80
55008;DHT22;40902;45.116;21.296;2023-02-26T11:47:22;153.70;2252.80
55008;DHT22;40902;45.116;21.296;2023-02-26T11:49:55;153.70;2252.80
55008;DHT22;40902;45.116;21.296;2023-02-26T11:52:22;153.70;2252.80
55008;DHT22;40902;45.116;21.296;2023-02-26T11:55:03;153.70;2252.80
55008;DHT22;40902;45.116;21.296;2023-02-26T11:57:31;153.60;2252.80
55008;DHT22;40902;45.116;21.296;2023-02-26T11:59:59;153.60;2252.80
55008;DHT22;40902;45.116;21.296;2023-02-26T12:02:30;128.90;2252.80
55008;DHT22;40902;45.116;21.296;2023-02-26T12:04:59;153.60;2252.80
55008;DHT22;40902;45.116;21.296;2023-02-26T12:07:25;128.90;2252.80
55008;DHT22;40902;45.116;21.296;2023-02-26T12:09:51;128.90;2252.80
55008;DHT22;40902;45.116;21.296;2023-02-26T12:17:57;128.90;2252.80
55008;DHT22;40902;45.116;21.296;2023-02-26T12:20:38;128.90;2252.80
55008;DHT22;40902;45.116;21.296;2023-02-26T12:29:17;153.60;2252.80
55008;DHT22;40902;45.116;21.296;2023-02-26T12:35:06;153.60;2252.80
55008;DHT22;40902;45.116;21.296;2023-02-26T12:37:45;153.60;2252.80
55008;DHT22;40902;45.116;21.296;2023-02-26T12:40:26;153.60;2252.80
55008;DHT22;40902;45.116;21.296;2023-02-26T12:52:18;128.90;2252.80
55008;DHT22;40902;45.116;21.296;2023-02-26T12:54:53;128.80;2252.80
55008;DHT22;40902;45.116;21.296;2023-02-26T13:06:20;128.90;2252.80
55008;DHT22;40902;45.116;21.296;2023-02-26T13:20:15;153.60;2252.80
55008;DHT22;40902;45.116;21.296;2023-02-26T13:22:46;153.60;2252.80
55008;DHT22;40902;45.116;21.296;2023-02-26T13:25:22;153.60;2252.80
55008;DHT22;40902;45.116;21.296;2023-02-26T13:27:53;153.60;2252.80
55008;DHT22;40902;45.116;21.296;2023-02-26T13:32:58;153.80;2252.80
55008;DHT22;40902;45.116;21.296;2023-02-26T13:35:28;153.80;2252.80
55008;DHT22;40902;45.116;21.296;2023-02-26T13:37:58;153.80;2252.80
55008;DHT22;40902;45.116;21.296;2023-02-26T13:43:24;153.80;2252.80
55008;DHT22;40902;45.116;21.296;2023-02-26T13:49:12;154.10;2252.80
55008;DHT22;40902;45.116;21.296;2023-02-26T13:51:44;154.10;2252.80
55008;DHT22;40902;45.116;21.296;2023-02-26T14:30:34;179.40;2252.80
55008;DHT22;40902;45.116;21.296;2023-02-26T14:35:29;179.40;2252.80
55008;DHT22;40902;45.116;21.296;2023-02-26T14:38:22;179.30;2252.80
55008;DHT22;40902;45.116;21.296;2023-02-26T14:41:23;179.30;2252.80
55008;DHT22;40902;45.116;21.296;2023-02-26T14:44:17;179.30;2252.80
55008;DHT22;40902;45.116;21.296;2023-02-26T14:46:41;179.20;2252.80
55008;DHT22;40902;45.116;21.296;2023-02-26T14:49:17;179.20;2252.80
55008;DHT22;40902;45.116;21.296;2023-02-26T15:02:29;179.20;2252.80
55008;DHT22;40902;45.116;21.296;2023-02-26T15:15:54;179.30;2252.80
55008;DHT22;40902;45.116;21.296;2023-02-26T15:18:39;179.30;2252.80
55008;DHT22;40902;45.116;21.296;2023-02-26T15:23:46;179.30;2252.80
55008;DHT22;40902;45.116;21.296;2023-02-26T15:26:43;179.30;2252.80
55008;DHT22;40902;45.116;21.296;2023-02-26T15:29:11;179.30;2252.80
55008;DHT22;40902;45.116;21.296;2023-02-26T15:32:05;179.20;2252.80
55008;DHT22;40902;45.116;21.296;2023-02-26T15:34:44;179.20;2252.80
55008;DHT22;40902;45.116;21.296;2023-02-26T15:37:19;179.20;2252.80
55008;DHT22;40902;45.116;21.296;2023-02-26T15:39:50;179.20;2252.80
55008;DHT22;40902;45.116;21.296;2023-02-26T15:42:18;179.20;2252.80
55008;DHT22;40902;45.116;21.296;2023-02-26T15:44:46;179.20;2252.80
55008;DHT22;40902;45.116;21.296;2023-02-26T15:47:14;179.30;2252.80
55008;DHT22;40902;45.116;21.296;2023-02-26T15:49:45;179.40;2252.80
55008;DHT22;40902;45.116;21.296;2023-02-26T15:52:15;179.30;2252.80
55008;DHT22;40902;45.116;21.296;2023-02-26T15:54:49;179.20;2252.80
55008;DHT22;40902;45.116;21.296;2023-02-26T15:57:17;179.20;2252.80
55008;DHT22;40902;45.116;21.296;2023-02-26T15:59:49;179.20;2252.80
55008;DHT22;40902;45.116;21.296;2023-02-26T16:02:21;179.20;2252.80
55008;DHT22;40902;45.116;21.296;2023-02-26T16:04:50;179.20;2252.80
55008;DHT22;40902;45.116;21.296;2023-02-26T16:07:18;179.20;2252.80
55008;DHT22;40902;45.116;21.296;2023-02-26T16:09:49;154.50;2252.80
55008;DHT22;40902;45.116;21.296;2023-02-26T16:12:21;154.50;2252.80
55008;DHT22;40902;45.116;21.296;2023-02-26T16:15:00;154.40;2252.80
55008;DHT22;40902;45.116;21.296;2023-02-26T16:17:32;154.40;2252.80
55008;DHT22;40902;45.116;21.296;2023-02-26T16:20:02;154.40;2252.80
55008;DHT22;40902;45.116;21.296;2023-02-26T16:22:35;154.40;2252.80
55008;DHT22;40902;45.116;21.296;2023-02-26T16:25:21;154.40;2252.80
55008;DHT22;40902;45.116;21.296;2023-02-26T16:30:42;154.30;2252.80
55008;DHT22;40902;45.116;21.296;2023-02-26T16:33:13;154.30;2252.80
55008;DHT22;40902;45.116;21.296;2023-02-26T16:35:48;154.20;2252.80
55008;DHT22;40902;45.116;21.296;2023-02-26T16:41:07;154.30;2252.80
55008;DHT22;40902;45.116;21.296;2023-02-26T16:43:49;154.30;2252.80
55008;DHT22;40902;45.116;21.296;2023-02-26T16:46:20;154.30;2252.80
55008;DHT22;40902;45.116;21.296;2023-02-26T16:48:53;154.30;2252.80
55008;DHT22;40902;45.116;21.296;2023-02-26T16:51:22;154.20;2252.80
55008;DHT22;40902;45.116;21.296;2023-02-26T16:53:51;154.20;2252.80
55008;DHT22;40902;45.116;21.296;2023-02-26T16:56:21;154.30;2252.80
55008;DHT22;40902;45.116;21.296;2023-02-26T16:59:03;154.30;2252.80
55008;DHT22;40902;45.116;21.296;2023-02-26T17:01:34;154.20;2252.80
55008;DHT22;40902;45.116;21.296;2023-02-26T17:04:01;154.30;2252.80
55008;DHT22;40902;45.116;21.296;2023-02-26T17:06:28;154.30;2252.80
55008;DHT22;40902;45.116;21.296;2023-02-26T17:09:01;154.30;2252.80
55008;DHT22;40902;45.116;21.296;2023-02-26T17:11:33;154.20;2252.80
55008;DHT22;40902;45.116;21.296;2023-02-26T17:16:40;154.20;2252.80
55008;DHT22;40902;45.116;21.296;2023-02-26T17:19:05;154.20;2252.80
55008;DHT22;40902;45.116;21.296;2023-02-26T17:21:31;154.20;2252.80
55008;DHT22;40902;45.116;21.296;2023-02-26T17:23:59;154.20;2252.80
55008;DHT22;40902;45.116;21.296;2023-02-26T17:26:25;154.10;2252.80
55008;DHT22;40902;45.116;21.296;2023-02-26T17:28:51;154.00;2252.80
55008;DHT22;40902;45.116;21.296;2023-02-26T17:31:17;154.10;2252.80
55008;DHT22;40902;45.116;21.296;2023-02-26T17:33:43;154.00;2252.80
55008;DHT22;40902;45.116;21.296;2023-02-26T17:36:14;154.00;2252.80
55008;DHT22;40902;45.116;21.296;2023-02-26T17:38:40;154.00;2252.80
55008;DHT22;40902;45.116;21.296;2023-02-26T17:41:15;154.00;2252.80
55008;DHT22;40902;45.116;21.296;2023-02-26T17:43:41;153.90;2252.80
55008;DHT22;40902;45.116;21.296;2023-02-26T17:46:09;153.90;2252.80
55008;DHT22;40902;45.116;21.296;2023-02-26T17:48:36;153.90;2252.80
55008;DHT22;40902;45.116;21.296;2023-02-26T17:51:02;153.90;2252.80
55008;DHT22;40902;45.116;21.296;2023-02-26T17:53:28;153.90;2252.80
55008;DHT22;40902;45.116;21.296;2023-02-26T17:56:30;153.90;2252.80
55008;DHT22;40902;45.116;21.296;2023-02-26T17:58:56;153.90;2252.80
55008;DHT22;40902;45.116;21.296;2023-02-26T18:01:23;153.80;2252.80
55008;DHT22;40902;45.116;21.296;2023-02-26T18:03:49;153.80;2252.80
55008;DHT22;40902;45.116;21.296;2023-02-26T18:06:15;153.80;2252.80
55008;DHT22;40902;45.116;21.296;2023-02-26T18:08:41;153.80;2252.80
55008;DHT22;40902;45.116;21.296;2023-02-26T18:11:09;153.80;2252.80
55008;DHT22;40902;45.116;21.296;2023-02-26T18:13:37;153.80;2252.80
55008;DHT22;40902;45.116;21.296;2023-02-26T18:16:03;153.80;2252.80
55008;DHT22;40902;45.116;21.296;2023-02-26T18:18:30;153.80;2252.80
55008;DHT22;40902;45.116;21.296;2023-02-26T18:20:56;153.80;2252.80
55008;DHT22;40902;45.116;21.296;2023-02-26T18:23:22;153.80;2252.80
55008;DHT22;40902;45.116;21.296;2023-02-26T18:25:50;153.70;2252.80
55008;DHT22;40902;45.116;21.296;2023-02-26T18:28:20;153.70;2252.80
55008;DHT22;40902;45.116;21.296;2023-02-26T18:30:47;153.60;2252.80
55008;DHT22;40902;45.116;21.296;2023-02-26T18:33:13;153.60;2252.80
55008;DHT22;40902;45.116;21.296;2023-02-26T18:35:42;153.70;2252.80
55008;DHT22;40902;45.116;21.296;2023-02-26T18:38:20;153.60;2252.80